sensor_id;sensor_type;location;lat;lon;timestamp;P1;durP1;ratioP1;P2;durP2;ratioP2
25663;SDS011;13522;50.018;20.014;2023-06-14T00:03:03;18.95;;;10.58;;
25663;SDS011;13522;50.018;20.014;2023-06-14T00:06:17;16.20;;;10.50;;
25663;SDS011;13522;50.018;20.014;2023-06-14T00:09:29;17.25;;;10.95;;
25663;SDS011;13522;50.018;20.014;2023-06-14T00:12:42;17.13;;;10.80;;
25663;SDS011;13522;50.018;20.014;2023-06-14T00:15:54;18.20;;;11.13;;
25663;SDS011;13522;50.018;20.014;2023-06-14T00:19:08;16.40;;;10.00;;
25663;SDS011;13522;50.018;20.014;2023-06-14T00:22:21;16.03;;;10.68;;
25663;SDS011;13522;50.018;20.014;2023-06-14T00:25:35;16.38;;;10.60;;
25663;SDS011;13522;50.018;20.014;2023-06-14T00:28:47;21.30;;;10.80;;
25663;SDS011;13522;50.018;20.014;2023-06-14T00:32:03;17.58;;;10.85;;
25663;SDS011;13522;50.018;20.014;2023-06-14T00:35:17;17.40;;;10.63;;
25663;SDS011;13522;50.018;20.014;2023-06-14T00:38:30;16.45;;;10.65;;
25663;SDS011;13522;50.018;20.014;2023-06-14T00:41:42;21.43;;;15.80;;
25663;SDS011;13522;50.018;20.014;2023-06-14T00:44:54;19.30;;;13.00;;
25663;SDS011;13522;50.018;20.014;2023-06-14T00:48:07;23.15;;;14.75;;
25663;SDS011;13522;50.018;20.014;2023-06-14T00:51:21;19.20;;;14.05;;
25663;SDS011;13522;50.018;20.014;2023-06-14T00:54:36;23.95;;;14.48;;
25663;SDS011;13522;50.018;20.014;2023-06-14T00:57:48;22.48;;;15.38;;
25663;SDS011;13522;50.018;20.014;2023-06-14T01:01:02;22.30;;;14.73;;
25663;SDS011;13522;50.018;20.014;2023-06-14T01:04:14;21.25;;;14.58;;
25663;SDS011;13522;50.018;20.014;2023-06-14T01:07:30;19.55;;;12.20;;
25663;SDS011;13522;50.018;20.014;2023-06-14T01:10:51;18.43;;;13.18;;
25663;SDS011;13522;50.018;20.014;2023-06-14T01:14:08;18.95;;;12.10;;
25663;SDS011;13522;50.018;20.014;2023-06-14T01:17:23;20.15;;;13.28;;
25663;SDS011;13522;50.018;20.014;2023-06-14T01:20:37;22.53;;;13.90;;
25663;SDS011;13522;50.018;20.014;2023-06-14T01:23:49;23.88;;;15.50;;
25663;SDS011;13522;50.018;20.014;2023-06-14T01:27:03;26.23;;;15.70;;
25663;SDS011;13522;50.018;20.014;2023-06-14T01:30:18;25.05;;;15.93;;
25663;SDS011;13522;50.018;20.014;2023-06-14T01:33:33;28.58;;;18.38;;
25663;SDS011;13522;50.018;20.014;2023-06-14T01:36:47;29.10;;;18.98;;
25663;SDS011;13522;50.018;20.014;2023-06-14T01:40:04;28.53;;;18.20;;
25663;SDS011;13522;50.018;20.014;2023-06-14T01:43:20;27.23;;;18.03;;
25663;SDS011;13522;50.018;20.014;2023-06-14T01:46:34;24.63;;;16.93;;
25663;SDS011;13522;50.018;20.014;2023-06-14T01:49:47;27.10;;;17.85;;
25663;SDS011;13522;50.018;20.014;2023-06-14T01:53:00;28.63;;;18.43;;
25663;SDS011;13522;50.018;20.014;2023-06-14T01:56:14;29.33;;;19.25;;
25663;SDS011;13522;50.018;20.014;2023-06-14T01:59:28;28.80;;;18.58;;
25663;SDS011;13522;50.018;20.014;2023-06-14T02:02:40;31.63;;;17.73;;
25663;SDS011;13522;50.018;20.014;2023-06-14T02:05:54;29.95;;;16.50;;
25663;SDS011;13522;50.018;20.014;2023-06-14T02:09:07;25.33;;;16.98;;
25663;SDS011;13522;50.018;20.014;2023-06-14T02:12:19;25.65;;;15.33;;
25663;SDS011;13522;50.018;20.014;2023-06-14T02:15:33;30.35;;;16.33;;
25663;SDS011;13522;50.018;20.014;2023-06-14T02:18:48;25.03;;;15.73;;
25663;SDS011;13522;50.018;20.014;2023-06-14T02:22:01;24.15;;;15.58;;
25663;SDS011;13522;50.018;20.014;2023-06-14T02:25:14;23.28;;;15.25;;
25663;SDS011;13522;50.018;20.014;2023-06-14T02:28:27;25.28;;;15.33;;
25663;SDS011;13522;50.018;20.014;2023-06-14T02:31:40;24.00;;;15.45;;
25663;SDS011;13522;50.018;20.014;2023-06-14T02:34:53;25.00;;;15.35;;
25663;SDS011;13522;50.018;20.014;2023-06-14T02:38:05;25.55;;;15.65;;
25663;SDS011;13522;50.018;20.014;2023-06-14T02:41:18;27.83;;;15.88;;
25663;SDS011;13522;50.018;20.014;2023-06-14T02:44:30;22.20;;;15.20;;
25663;SDS011;13522;50.018;20.014;2023-06-14T02:47:42;27.50;;;17.05;;
25663;SDS011;13522;50.018;20.014;2023-06-14T02:50:56;28.50;;;16.00;;
25663;SDS011;13522;50.018;20.014;2023-06-14T02:54:08;25.18;;;15.75;;
25663;SDS011;13522;50.018;20.014;2023-06-14T02:57:20;21.90;;;14.75;;
25663;SDS011;13522;50.018;20.014;2023-06-14T03:00:33;24.40;;;13.88;;
25663;SDS011;13522;50.018;20.014;2023-06-14T03:03:46;25.18;;;13.63;;
25663;SDS011;13522;50.018;20.014;2023-06-14T03:06:58;25.98;;;14.20;;
25663;SDS011;13522;50.018;20.014;2023-06-14T03:10:14;20.85;;;13.23;;
25663;SDS011;13522;50.018;20.014;2023-06-14T03:13:27;23.55;;;12.60;;
25663;SDS011;13522;50.018;20.014;2023-06-14T03:16:40;25.30;;;13.83;;
25663;SDS011;13522;50.018;20.014;2023-06-14T03:19:56;31.48;;;19.48;;
25663;SDS011;13522;50.018;20.014;2023-06-14T03:23:10;28.28;;;18.00;;
25663;SDS011;13522;50.018;20.014;2023-06-14T03:26:23;33.45;;;19.35;;
25663;SDS011;13522;50.018;20.014;2023-06-14T03:29:36;30.35;;;18.53;;
25663;SDS011;13522;50.018;20.014;2023-06-14T03:32:48;33.28;;;19.10;;
25663;SDS011;13522;50.018;20.014;2023-06-14T03:36:02;35.38;;;19.35;;
25663;SDS011;13522;50.018;20.014;2023-06-14T03:39:16;36.98;;;19.95;;
25663;SDS011;13522;50.018;20.014;2023-06-14T03:42:29;36.05;;;18.73;;
25663;SDS011;13522;50.018;20.014;2023-06-14T03:45:42;36.35;;;20.48;;
25663;SDS011;13522;50.018;20.014;2023-06-14T03:48:55;31.68;;;19.15;;
25663;SDS011;13522;50.018;20.014;2023-06-14T03:52:08;34.35;;;17.75;;
25663;SDS011;13522;50.018;20.014;2023-06-14T03:55:22;34.18;;;18.65;;
25663;SDS011;13522;50.018;20.014;2023-06-14T03:58:39;35.50;;;19.03;;
25663;SDS011;13522;50.018;20.014;2023-06-14T04:01:51;37.40;;;17.80;;
25663;SDS011;13522;50.018;20.014;2023-06-14T04:05:04;33.20;;;18.43;;
25663;SDS011;13522;50.018;20.014;2023-06-14T04:08:21;39.68;;;18.58;;
25663;SDS011;13522;50.018;20.014;2023-06-14T04:11:35;34.35;;;17.80;;
25663;SDS011;13522;50.018;20.014;2023-06-14T04:14:47;31.35;;;18.43;;
25663;SDS011;13522;50.018;20.014;2023-06-14T04:18:02;32.08;;;17.65;;
25663;SDS011;13522;50.018;20.014;2023-06-14T04:21:16;34.68;;;18.68;;
25663;SDS011;13522;50.018;20.014;2023-06-14T04:24:30;35.98;;;18.20;;
25663;SDS011;13522;50.018;20.014;2023-06-14T04:27:42;36.20;;;19.25;;
25663;SDS011;13522;50.018;20.014;2023-06-14T04:30:55;39.95;;;19.65;;
25663;SDS011;13522;50.018;20.014;2023-06-14T04:34:13;44.10;;;20.45;;
25663;SDS011;13522;50.018;20.014;2023-06-14T04:37:28;38.85;;;19.20;;
25663;SDS011;13522;50.018;20.014;2023-06-14T04:40:42;39.35;;;20.08;;
25663;SDS011;13522;50.018;20.014;2023-06-14T04:43:57;39.75;;;17.98;;
25663;SDS011;13522;50.018;20.014;2023-06-14T04:47:13;33.97;;;19.00;;
25663;SDS011;13522;50.018;20.014;2023-06-14T04:50:26;41.43;;;20.30;;
25663;SDS011;13522;50.018;20.014;2023-06-14T04:53:39;35.25;;;18.60;;
25663;SDS011;13522;50.018;20.014;2023-06-14T04:56:54;38.80;;;19.10;;
25663;SDS011;13522;50.018;20.014;2023-06-14T05:00:08;41.78;;;19.95;;
25663;SDS011;13522;50.018;20.014;2023-06-14T05:03:22;38.65;;;20.93;;
25663;SDS011;13522;50.018;20.014;2023-06-14T05:06:35;44.18;;;21.80;;
25663;SDS011;13522;50.018;20.014;2023-06-14T05:09:49;48.18;;;20.52;;
25663;SDS011;13522;50.018;20.014;2023-06-14T05:13:02;44.18;;;22.13;;
25663;SDS011;13522;50.018;20.014;2023-06-14T05:16:16;42.33;;;20.83;;
25663;SDS011;13522;50.018;20.014;2023-06-14T05:19:30;39.95;;;21.33;;
25663;SDS011;13522;50.018;20.014;2023-06-14T05:22:42;44.35;;;21.43;;
25663;SDS011;13522;50.018;20.014;2023-06-14T05:25:56;46.30;;;21.60;;
25663;SDS011;13522;50.018;20.014;2023-06-14T05:29:10;45.78;;;22.53;;
25663;SDS011;13522;50.018;20.014;2023-06-14T05:32:22;50.48;;;23.63;;
25663;SDS011;13522;50.018;20.014;2023-06-14T05:35:35;39.58;;;21.48;;
25663;SDS011;13522;50.018;20.014;2023-06-14T05:38:47;43.73;;;21.30;;
25663;SDS011;13522;50.018;20.014;2023-06-14T05:42:02;39.13;;;21.60;;
25663;SDS011;13522;50.018;20.014;2023-06-14T05:45:17;41.78;;;20.90;;
25663;SDS011;13522;50.018;20.014;2023-06-14T05:48:29;40.80;;;20.40;;
25663;SDS011;13522;50.018;20.014;2023-06-14T05:51:42;45.58;;;20.78;;
25663;SDS011;13522;50.018;20.014;2023-06-14T05:54:54;44.78;;;21.88;;
25663;SDS011;13522;50.018;20.014;2023-06-14T05:58:06;55.78;;;22.13;;
25663;SDS011;13522;50.018;20.014;2023-06-14T06:01:19;48.23;;;22.58;;
25663;SDS011;13522;50.018;20.014;2023-06-14T06:04:32;54.83;;;26.20;;
25663;SDS011;13522;50.018;20.014;2023-06-14T06:07:44;47.90;;;24.45;;
25663;SDS011;13522;50.018;20.014;2023-06-14T06:10:57;44.13;;;22.08;;
25663;SDS011;13522;50.018;20.014;2023-06-14T06:14:09;39.60;;;20.58;;
25663;SDS011;13522;50.018;20.014;2023-06-14T06:17:22;36.18;;;19.13;;
25663;SDS011;13522;50.018;20.014;2023-06-14T06:20:37;35.70;;;19.90;;
25663;SDS011;13522;50.018;20.014;2023-06-14T06:23:51;39.05;;;20.13;;
25663;SDS011;13522;50.018;20.014;2023-06-14T06:27:06;36.63;;;19.70;;
25663;SDS011;13522;50.018;20.014;2023-06-14T06:30:20;34.43;;;20.28;;
25663;SDS011;13522;50.018;20.014;2023-06-14T06:33:33;39.25;;;20.30;;
25663;SDS011;13522;50.018;20.014;2023-06-14T06:36:45;35.48;;;18.95;;
25663;SDS011;13522;50.018;20.014;2023-06-14T06:39:57;43.98;;;21.90;;
25663;SDS011;13522;50.018;20.014;2023-06-14T06:43:10;37.55;;;18.90;;
25663;SDS011;13522;50.018;20.014;2023-06-14T06:46:24;35.63;;;20.00;;
25663;SDS011;13522;50.018;20.014;2023-06-14T06:49:37;40.88;;;19.43;;
25663;SDS011;13522;50.018;20.014;2023-06-14T06:52:49;34.93;;;19.28;;
25663;SDS011;13522;50.018;20.014;2023-06-14T06:56:02;32.53;;;18.60;;
25663;SDS011;13522;50.018;20.014;2023-06-14T06:59:15;34.20;;;17.28;;
25663;SDS011;13522;50.018;20.014;2023-06-14T07:02:27;27.10;;;17.45;;
25663;SDS011;13522;50.018;20.014;2023-06-14T07:05:39;31.65;;;17.88;;
25663;SDS011;13522;50.018;20.014;2023-06-14T07:08:53;56.15;;;34.33;;
25663;SDS011;13522;50.018;20.014;2023-06-14T07:12:06;51.45;;;25.70;;
25663;SDS011;13522;50.018;20.014;2023-06-14T07:15:20;59.53;;;33.65;;
25663;SDS011;13522;50.018;20.014;2023-06-14T07:18:32;62.38;;;24.75;;
25663;SDS011;13522;50.018;20.014;2023-06-14T07:21:45;578.20;;;147.20;;
25663;SDS011;13522;50.018;20.014;2023-06-14T07:24:58;255.53;;;69.33;;
25663;SDS011;13522;50.018;20.014;2023-06-14T07:28:10;83.42;;;35.23;;
25663;SDS011;13522;50.018;20.014;2023-06-14T07:31:23;81.98;;;29.38;;
25663;SDS011;13522;50.018;20.014;2023-06-14T07:34:35;60.40;;;27.25;;
25663;SDS011;13522;50.018;20.014;2023-06-14T07:37:48;42.68;;;25.98;;
25663;SDS011;13522;50.018;20.014;2023-06-14T07:41:00;31.75;;;19.68;;
25663;SDS011;13522;50.018;20.014;2023-06-14T07:44:13;23.43;;;14.40;;
25663;SDS011;13522;50.018;20.014;2023-06-14T07:47:25;33.80;;;14.33;;
25663;SDS011;13522;50.018;20.014;2023-06-14T07:50:38;21.90;;;13.80;;
25663;SDS011;13522;50.018;20.014;2023-06-14T07:53:50;30.03;;;19.25;;
25663;SDS011;13522;50.018;20.014;2023-06-14T07:57:03;61.60;;;23.75;;
25663;SDS011;13522;50.018;20.014;2023-06-14T08:00:17;118.48;;;62.38;;
25663;SDS011;13522;50.018;20.014;2023-06-14T08:03:32;104.45;;;48.25;;
25663;SDS011;13522;50.018;20.014;2023-06-14T08:06:44;55.03;;;25.70;;
25663;SDS011;13522;50.018;20.014;2023-06-14T08:09:57;56.20;;;23.48;;
25663;SDS011;13522;50.018;20.014;2023-06-14T08:13:09;28.25;;;10.60;;
25663;SDS011;13522;50.018;20.014;2023-06-14T08:16:22;11.78;;;6.65;;
25663;SDS011;13522;50.018;20.014;2023-06-14T08:19:35;9.23;;;5.10;;
25663;SDS011;13522;50.018;20.014;2023-06-14T08:22:47;7.23;;;5.28;;
25663;SDS011;13522;50.018;20.014;2023-06-14T08:26:01;8.08;;;3.90;;
25663;SDS011;13522;50.018;20.014;2023-06-14T08:29:15;3.70;;;3.20;;
25663;SDS011;13522;50.018;20.014;2023-06-14T08:32:28;7.15;;;3.70;;
25663;SDS011;13522;50.018;20.014;2023-06-14T08:35:44;7.73;;;5.45;;
25663;SDS011;13522;50.018;20.014;2023-06-14T08:38:56;6.38;;;4.38;;
25663;SDS011;13522;50.018;20.014;2023-06-14T08:42:08;10.43;;;6.65;;
25663;SDS011;13522;50.018;20.014;2023-06-14T08:45:24;9.60;;;4.57;;
25663;SDS011;13522;50.018;20.014;2023-06-14T08:48:37;7.63;;;3.20;;
25663;SDS011;13522;50.018;20.014;2023-06-14T08:51:51;5.75;;;4.20;;
25663;SDS011;13522;50.018;20.014;2023-06-14T08:58:19;5.88;;;3.58;;
25663;SDS011;13522;50.018;20.014;2023-06-14T09:01:34;5.68;;;4.00;;
25663;SDS011;13522;50.018;20.014;2023-06-14T09:04:49;5.58;;;4.13;;
25663;SDS011;13522;50.018;20.014;2023-06-14T09:08:04;9.93;;;7.75;;
25663;SDS011;13522;50.018;20.014;2023-06-14T09:11:17;13.55;;;9.55;;
25663;SDS011;13522;50.018;20.014;2023-06-14T09:14:30;8.68;;;6.50;;
25663;SDS011;13522;50.018;20.014;2023-06-14T09:17:46;11.90;;;8.27;;
25663;SDS011;13522;50.018;20.014;2023-06-14T09:21:00;9.93;;;6.80;;
25663;SDS011;13522;50.018;20.014;2023-06-14T09:24:14;6.50;;;5.45;;
25663;SDS011;13522;50.018;20.014;2023-06-14T09:27:27;9.20;;;6.53;;
25663;SDS011;13522;50.018;20.014;2023-06-14T09:30:42;8.18;;;5.93;;
25663;SDS011;13522;50.018;20.014;2023-06-14T09:33:55;8.03;;;5.55;;
25663;SDS011;13522;50.018;20.014;2023-06-14T09:37:08;10.73;;;8.58;;
25663;SDS011;13522;50.018;20.014;2023-06-14T09:40:22;16.00;;;12.00;;
25663;SDS011;13522;50.018;20.014;2023-06-14T09:43:34;11.63;;;9.28;;
25663;SDS011;13522;50.018;20.014;2023-06-14T09:46:49;33.43;;;22.85;;
25663;SDS011;13522;50.018;20.014;2023-06-14T09:50:04;13.53;;;10.40;;
25663;SDS011;13522;50.018;20.014;2023-06-14T09:53:20;11.43;;;8.15;;
25663;SDS011;13522;50.018;20.014;2023-06-14T09:56:36;9.68;;;7.13;;
25663;SDS011;13522;50.018;20.014;2023-06-14T09:59:56;8.05;;;6.60;;
25663;SDS011;13522;50.018;20.014;2023-06-14T10:03:16;10.50;;;6.43;;
25663;SDS011;13522;50.018;20.014;2023-06-14T10:06:36;8.53;;;6.90;;
25663;SDS011;13522;50.018;20.014;2023-06-14T10:13:03;28.38;;;18.80;;
25663;SDS011;13522;50.018;20.014;2023-06-14T10:16:17;10.03;;;8.18;;
25663;SDS011;13522;50.018;20.014;2023-06-14T10:19:37;8.75;;;7.15;;
25663;SDS011;13522;50.018;20.014;2023-06-14T10:22:58;10.73;;;6.85;;
25663;SDS011;13522;50.018;20.014;2023-06-14T10:26:20;9.70;;;6.98;;
25663;SDS011;13522;50.018;20.014;2023-06-14T10:29:34;13.83;;;8.85;;
25663;SDS011;13522;50.018;20.014;2023-06-14T10:33:07;13.98;;;11.15;;
25663;SDS011;13522;50.018;20.014;2023-06-14T10:36:26;8.88;;;7.18;;
25663;SDS011;13522;50.018;20.014;2023-06-14T10:39:40;12.35;;;8.65;;
25663;SDS011;13522;50.018;20.014;2023-06-14T10:42:54;8.60;;;7.50;;
25663;SDS011;13522;50.018;20.014;2023-06-14T10:46:18;10.93;;;8.10;;
25663;SDS011;13522;50.018;20.014;2023-06-14T10:49:38;56.40;;;36.63;;
25663;SDS011;13522;50.018;20.014;2023-06-14T10:52:53;13.53;;;10.63;;
25663;SDS011;13522;50.018;20.014;2023-06-14T10:56:07;9.43;;;7.98;;
25663;SDS011;13522;50.018;20.014;2023-06-14T10:59:33;10.68;;;7.73;;
25663;SDS011;13522;50.018;20.014;2023-06-14T11:03:05;14.83;;;9.45;;
25663;SDS011;13522;50.018;20.014;2023-06-14T11:06:55;11.30;;;8.53;;
25663;SDS011;13522;50.018;20.014;2023-06-14T11:10:17;20.15;;;12.28;;
25663;SDS011;13522;50.018;20.014;2023-06-14T11:13:38;12.15;;;10.75;;
25663;SDS011;13522;50.018;20.014;2023-06-14T11:16:53;13.85;;;10.65;;
25663;SDS011;13522;50.018;20.014;2023-06-14T11:20:09;12.38;;;10.10;;
25663;SDS011;13522;50.018;20.014;2023-06-14T11:23:25;11.48;;;9.05;;
25663;SDS011;13522;50.018;20.014;2023-06-14T11:26:38;11.78;;;8.95;;
25663;SDS011;13522;50.018;20.014;2023-06-14T11:29:50;11.08;;;9.45;;
25663;SDS011;13522;50.018;20.014;2023-06-14T11:33:03;15.43;;;11.93;;
25663;SDS011;13522;50.018;20.014;2023-06-14T11:36:20;16.13;;;12.18;;
25663;SDS011;13522;50.018;20.014;2023-06-14T11:39:36;13.88;;;11.45;;
25663;SDS011;13522;50.018;20.014;2023-06-14T11:42:59;9.60;;;8.55;;
25663;SDS011;13522;50.018;20.014;2023-06-14T11:46:15;9.23;;;7.90;;
25663;SDS011;13522;50.018;20.014;2023-06-14T11:49:29;11.75;;;8.90;;
25663;SDS011;13522;50.018;20.014;2023-06-14T11:52:51;9.53;;;7.90;;
25663;SDS011;13522;50.018;20.014;2023-06-14T11:56:05;8.18;;;7.38;;
25663;SDS011;13522;50.018;20.014;2023-06-14T11:59:20;8.20;;;7.15;;
25663;SDS011;13522;50.018;20.014;2023-06-14T12:02:33;13.93;;;10.78;;
25663;SDS011;13522;50.018;20.014;2023-06-14T12:05:45;11.08;;;8.28;;
25663;SDS011;13522;50.018;20.014;2023-06-14T12:08:59;10.88;;;8.73;;
25663;SDS011;13522;50.018;20.014;2023-06-14T12:12:15;8.48;;;7.15;;
25663;SDS011;13522;50.018;20.014;2023-06-14T12:15:29;11.45;;;8.13;;
25663;SDS011;13522;50.018;20.014;2023-06-14T12:18:43;7.60;;;6.75;;
25663;SDS011;13522;50.018;20.014;2023-06-14T12:21:56;11.98;;;7.38;;
25663;SDS011;13522;50.018;20.014;2023-06-14T12:25:13;8.05;;;6.28;;
25663;SDS011;13522;50.018;20.014;2023-06-14T12:28:41;8.25;;;7.00;;
25663;SDS011;13522;50.018;20.014;2023-06-14T12:31:55;8.60;;;6.00;;
25663;SDS011;13522;50.018;20.014;2023-06-14T12:35:08;7.45;;;5.65;;
25663;SDS011;13522;50.018;20.014;2023-06-14T12:38:21;7.60;;;5.05;;
25663;SDS011;13522;50.018;20.014;2023-06-14T12:41:33;8.25;;;5.35;;
25663;SDS011;13522;50.018;20.014;2023-06-14T12:44:46;6.28;;;4.63;;
25663;SDS011;13522;50.018;20.014;2023-06-14T12:47:58;7.05;;;5.28;;
25663;SDS011;13522;50.018;20.014;2023-06-14T12:51:13;9.23;;;6.18;;
25663;SDS011;13522;50.018;20.014;2023-06-14T12:54:26;7.68;;;5.45;;
25663;SDS011;13522;50.018;20.014;2023-06-14T12:57:41;7.28;;;5.30;;
25663;SDS011;13522;50.018;20.014;2023-06-14T13:00:54;7.63;;;4.48;;
25663;SDS011;13522;50.018;20.014;2023-06-14T13:04:06;8.08;;;5.60;;
25663;SDS011;13522;50.018;20.014;2023-06-14T13:07:19;12.98;;;9.28;;
25663;SDS011;13522;50.018;20.014;2023-06-14T13:10:32;10.40;;;6.58;;
25663;SDS011;13522;50.018;20.014;2023-06-14T13:13:45;7.68;;;5.90;;
25663;SDS011;13522;50.018;20.014;2023-06-14T13:16:58;5.65;;;4.53;;
25663;SDS011;13522;50.018;20.014;2023-06-14T13:20:11;5.08;;;4.13;;
25663;SDS011;13522;50.018;20.014;2023-06-14T13:23:26;6.05;;;4.68;;
25663;SDS011;13522;50.018;20.014;2023-06-14T13:26:38;6.03;;;4.70;;
25663;SDS011;13522;50.018;20.014;2023-06-14T13:29:51;7.63;;;4.65;;
25663;SDS011;13522;50.018;20.014;2023-06-14T13:33:04;5.48;;;4.50;;
25663;SDS011;13522;50.018;20.014;2023-06-14T13:36:19;8.85;;;5.18;;
25663;SDS011;13522;50.018;20.014;2023-06-14T13:39:32;7.43;;;5.50;;
25663;SDS011;13522;50.018;20.014;2023-06-14T13:42:45;6.03;;;4.35;;
25663;SDS011;13522;50.018;20.014;2023-06-14T13:45:58;7.13;;;4.58;;
25663;SDS011;13522;50.018;20.014;2023-06-14T13:49:11;7.30;;;4.38;;
25663;SDS011;13522;50.018;20.014;2023-06-14T13:52:23;7.33;;;5.10;;
25663;SDS011;13522;50.018;20.014;2023-06-14T13:55:36;7.20;;;4.38;;
25663;SDS011;13522;50.018;20.014;2023-06-14T13:58:48;6.93;;;4.93;;
25663;SDS011;13522;50.018;20.014;2023-06-14T14:02:01;18.20;;;12.08;;
25663;SDS011;13522;50.018;20.014;2023-06-14T14:05:14;9.93;;;6.73;;
25663;SDS011;13522;50.018;20.014;2023-06-14T14:08:29;9.35;;;5.83;;
25663;SDS011;13522;50.018;20.014;2023-06-14T14:11:41;10.13;;;4.20;;
25663;SDS011;13522;50.018;20.014;2023-06-14T14:14:54;8.45;;;4.18;;
25663;SDS011;13522;50.018;20.014;2023-06-14T14:18:07;7.83;;;4.95;;
25663;SDS011;13522;50.018;20.014;2023-06-14T14:21:20;6.35;;;4.23;;
25663;SDS011;13522;50.018;20.014;2023-06-14T14:24:32;7.75;;;4.55;;
25663;SDS011;13522;50.018;20.014;2023-06-14T14:27:45;6.55;;;4.43;;
25663;SDS011;13522;50.018;20.014;2023-06-14T14:30:57;7.43;;;4.10;;
25663;SDS011;13522;50.018;20.014;2023-06-14T14:34:10;4.70;;;3.63;;
25663;SDS011;13522;50.018;20.014;2023-06-14T14:37:23;8.08;;;3.78;;
25663;SDS011;13522;50.018;20.014;2023-06-14T14:40:35;6.05;;;3.28;;
25663;SDS011;13522;50.018;20.014;2023-06-14T14:43:48;6.10;;;3.85;;
25663;SDS011;13522;50.018;20.014;2023-06-14T14:47:00;19.13;;;13.43;;
25663;SDS011;13522;50.018;20.014;2023-06-14T14:50:13;13.80;;;10.05;;
25663;SDS011;13522;50.018;20.014;2023-06-14T14:53:26;6.28;;;3.50;;
25663;SDS011;13522;50.018;20.014;2023-06-14T14:56:38;4.68;;;3.40;;
25663;SDS011;13522;50.018;20.014;2023-06-14T14:59:50;6.50;;;3.48;;
25663;SDS011;13522;50.018;20.014;2023-06-14T15:03:02;5.25;;;4.40;;
25663;SDS011;13522;50.018;20.014;2023-06-14T15:06:15;9.65;;;4.18;;
25663;SDS011;13522;50.018;20.014;2023-06-14T15:09:28;5.98;;;3.73;;
25663;SDS011;13522;50.018;20.014;2023-06-14T15:12:40;6.45;;;4.25;;
25663;SDS011;13522;50.018;20.014;2023-06-14T15:15:52;7.05;;;4.50;;
25663;SDS011;13522;50.018;20.014;2023-06-14T15:19:04;4.43;;;3.20;;
25663;SDS011;13522;50.018;20.014;2023-06-14T15:22:17;6.55;;;3.10;;
25663;SDS011;13522;50.018;20.014;2023-06-14T15:25:29;5.00;;;3.63;;
25663;SDS011;13522;50.018;20.014;2023-06-14T15:28:42;9.68;;;5.63;;
25663;SDS011;13522;50.018;20.014;2023-06-14T15:31:55;6.18;;;3.25;;
25663;SDS011;13522;50.018;20.014;2023-06-14T15:35:07;6.80;;;4.30;;
25663;SDS011;13522;50.018;20.014;2023-06-14T15:38:20;5.48;;;4.15;;
25663;SDS011;13522;50.018;20.014;2023-06-14T15:41:33;7.08;;;3.73;;
25663;SDS011;13522;50.018;20.014;2023-06-14T15:44:45;5.23;;;4.08;;
25663;SDS011;13522;50.018;20.014;2023-06-14T15:47:57;4.13;;;3.35;;
25663;SDS011;13522;50.018;20.014;2023-06-14T15:51:09;7.55;;;4.38;;
25663;SDS011;13522;50.018;20.014;2023-06-14T15:54:21;19.20;;;11.63;;
25663;SDS011;13522;50.018;20.014;2023-06-14T15:57:34;11.73;;;8.30;;
25663;SDS011;13522;50.018;20.014;2023-06-14T16:00:46;5.98;;;4.58;;
25663;SDS011;13522;50.018;20.014;2023-06-14T16:03:58;11.55;;;7.85;;
25663;SDS011;13522;50.018;20.014;2023-06-14T16:07:11;8.30;;;4.45;;
25663;SDS011;13522;50.018;20.014;2023-06-14T16:10:23;7.68;;;5.35;;
25663;SDS011;13522;50.018;20.014;2023-06-14T16:13:36;8.25;;;4.60;;
25663;SDS011;13522;50.018;20.014;2023-06-14T16:16:51;7.83;;;4.83;;
25663;SDS011;13522;50.018;20.014;2023-06-14T16:20:04;8.13;;;4.88;;
25663;SDS011;13522;50.018;20.014;2023-06-14T16:23:20;7.05;;;4.53;;
25663;SDS011;13522;50.018;20.014;2023-06-14T16:26:32;6.60;;;4.45;;
25663;SDS011;13522;50.018;20.014;2023-06-14T16:29:44;14.70;;;8.65;;
25663;SDS011;13522;50.018;20.014;2023-06-14T16:32:56;7.00;;;4.63;;
25663;SDS011;13522;50.018;20.014;2023-06-14T16:36:09;7.25;;;3.53;;
25663;SDS011;13522;50.018;20.014;2023-06-14T16:39:22;4.58;;;3.08;;
25663;SDS011;13522;50.018;20.014;2023-06-14T16:42:34;5.93;;;3.18;;
25663;SDS011;13522;50.018;20.014;2023-06-14T16:45:46;4.33;;;3.58;;
25663;SDS011;13522;50.018;20.014;2023-06-14T16:48:59;4.13;;;3.30;;
25663;SDS011;13522;50.018;20.014;2023-06-14T16:52:12;5.45;;;3.50;;
25663;SDS011;13522;50.018;20.014;2023-06-14T16:55:24;7.48;;;5.60;;
25663;SDS011;13522;50.018;20.014;2023-06-14T16:58:39;7.55;;;5.38;;
25663;SDS011;13522;50.018;20.014;2023-06-14T17:01:51;5.55;;;3.48;;
25663;SDS011;13522;50.018;20.014;2023-06-14T17:05:10;6.33;;;3.53;;
25663;SDS011;13522;50.018;20.014;2023-06-14T17:08:22;6.50;;;2.90;;
25663;SDS011;13522;50.018;20.014;2023-06-14T17:11:34;4.35;;;2.63;;
25663;SDS011;13522;50.018;20.014;2023-06-14T17:14:47;4.30;;;3.35;;
25663;SDS011;13522;50.018;20.014;2023-06-14T17:17:59;6.83;;;4.55;;
25663;SDS011;13522;50.018;20.014;2023-06-14T17:21:11;28.93;;;17.73;;
25663;SDS011;13522;50.018;20.014;2023-06-14T17:24:24;12.53;;;6.78;;
25663;SDS011;13522;50.018;20.014;2023-06-14T17:27:36;4.10;;;3.18;;
25663;SDS011;13522;50.018;20.014;2023-06-14T17:30:48;4.08;;;2.83;;
25663;SDS011;13522;50.018;20.014;2023-06-14T17:34:01;4.60;;;2.65;;
25663;SDS011;13522;50.018;20.014;2023-06-14T17:37:13;3.63;;;2.60;;
25663;SDS011;13522;50.018;20.014;2023-06-14T17:43:25;5.90;;;4.38;;
25663;SDS011;13522;50.018;20.014;2023-06-14T17:52:38;5.30;;;3.50;;
25663;SDS011;13522;50.018;20.014;2023-06-14T18:08:00;5.90;;;2.80;;
25663;SDS011;13522;50.018;20.014;2023-06-14T18:11:13;3.80;;;2.93;;
25663;SDS011;13522;50.018;20.014;2023-06-14T18:14:26;6.33;;;3.33;;
25663;SDS011;13522;50.018;20.014;2023-06-14T18:17:38;6.75;;;3.83;;
25663;SDS011;13522;50.018;20.014;2023-06-14T18:39:21;6.73;;;4.15;;
25663;SDS011;13522;50.018;20.014;2023-06-14T19:10:29;6.03;;;4.25;;
25663;SDS011;13522;50.018;20.014;2023-06-14T19:13:41;8.43;;;5.55;;
25663;SDS011;13522;50.018;20.014;2023-06-14T19:16:54;7.73;;;4.93;;
25663;SDS011;13522;50.018;20.014;2023-06-14T19:20:08;12.15;;;5.58;;
25663;SDS011;13522;50.018;20.014;2023-06-14T19:23:21;9.50;;;5.80;;
25663;SDS011;13522;50.018;20.014;2023-06-14T19:26:33;7.28;;;5.65;;
25663;SDS011;13522;50.018;20.014;2023-06-14T19:29:46;11.83;;;4.93;;
25663;SDS011;13522;50.018;20.014;2023-06-14T19:32:59;9.73;;;4.58;;
25663;SDS011;13522;50.018;20.014;2023-06-14T19:36:11;11.58;;;5.58;;
25663;SDS011;13522;50.018;20.014;2023-06-14T19:39:25;12.00;;;6.80;;
25663;SDS011;13522;50.018;20.014;2023-06-14T19:42:37;8.60;;;6.48;;
25663;SDS011;13522;50.018;20.014;2023-06-14T19:45:50;8.88;;;5.35;;
25663;SDS011;13522;50.018;20.014;2023-06-14T19:49:03;11.93;;;5.95;;
25663;SDS011;13522;50.018;20.014;2023-06-14T19:52:16;12.18;;;7.25;;
25663;SDS011;13522;50.018;20.014;2023-06-14T19:55:28;7.80;;;5.23;;
25663;SDS011;13522;50.018;20.014;2023-06-14T19:58:40;12.28;;;7.73;;
25663;SDS011;13522;50.018;20.014;2023-06-14T20:01:53;9.78;;;7.13;;
25663;SDS011;13522;50.018;20.014;2023-06-14T20:05:06;8.23;;;6.05;;
25663;SDS011;13522;50.018;20.014;2023-06-14T20:08:20;12.48;;;6.73;;